Time;durP1;ratioP1;P1;durP2;ratioP2;P2;SDS_P1;SDS_P2;PMS_P1;PMS_P2;Temp;Humidity;BMP_temperature;BMP_pressure;BME280_temperature;BME280_humidity;BME280_pressure;Samples;Min_cycle;Max_cycle;Signal;HPM_P1;HPM_P2
2022/09/30 00:01:51;;;;;;;31.77;18.17;;;9.00;99.90;;;;;;5007246;28;20379;-75
2022/09/30 00:04:19;;;;;;;32.47;18.27;;;9.00;99.90;;;;;;5007638;28;20114;-77
2022/09/30 00:06:46;;;;;;;31.48;18.00;;;9.00;99.90;;;;;;5004034;28;20529;-77
2022/09/30 00:09:12;;;;;;;31.00;17.80;;;9.00;99.90;;;;;;4995548;28;20086;-78
2022/09/30 00:11:39;;;;;;;29.77;16.47;;;9.00;99.90;;;;;;4994588;28;20455;-75
2022/09/30 00:14:05;;;;;;;31.58;16.30;;;9.10;99.90;;;;;;4996073;28;20367;-75
2022/09/30 00:16:34;;;;;;;31.02;16.05;;;9.10;99.90;;;;;;4996208;28;20039;-77
2022/09/30 00:19:02;;;;;;;28.65;16.30;;;9.10;99.90;;;;;;4995289;28;20386;-77
2022/09/30 00:21:28;;;;;;;25.92;15.23;;;9.10;99.90;;;;;;4994883;28;20050;-76
2022/09/30 00:23:54;;;;;;;28.92;17.10;;;9.10;99.90;;;;;;4995873;28;20066;-76
2022/09/30 00:26:22;;;;;;;26.83;16.25;;;9.10;99.90;;;;;;4995883;28;20050;-74
2022/09/30 00:28:55;;;;;;;25.42;16.30;;;9.10;99.90;;;;;;4996428;28;20517;-78
2022/09/30 00:31:22;;;;;;;27.27;16.52;;;9.10;99.90;;;;;;4996062;28;20061;-75
2022/09/30 00:34:05;;;;;;;24.90;15.20;;;9.10;99.90;;;;;;4995065;28;20046;-79
2022/09/30 00:37:03;;;;;;;26.58;16.08;;;9.00;99.90;;;;;;4996690;28;20102;-77
2022/09/30 00:39:30;;;;;;;29.70;16.77;;;9.00;99.90;;;;;;4992512;28;20142;-77
2022/09/30 00:41:58;;;;;;;25.60;15.77;;;8.90;99.90;;;;;;4995455;28;20057;-76
2022/09/30 00:44:50;;;;;;;30.75;17.92;;;8.90;99.90;;;;;;4994999;28;20149;-74
2022/09/30 00:47:24;;;;;;;28.35;16.90;;;8.70;99.90;;;;;;4995082;28;20070;-74
2022/09/30 00:49:51;;;;;;;27.65;16.55;;;8.70;99.90;;;;;;4995283;28;20065;-76
2022/09/30 00:52:18;;;;;;;26.65;16.13;;;8.60;99.90;;;;;;4995537;28;20481;-74
2022/09/30 00:54:44;;;;;;;28.33;17.13;;;8.50;99.90;;;;;;4994429;28;20077;-75
2022/09/30 00:57:10;;;;;;;32.15;15.48;;;8.60;99.90;;;;;;4995549;28;20061;-74
2022/09/30 00:59:41;;;;;;;32.63;16.25;;;8.40;99.90;;;;;;4962131;28;20054;-76
2022/09/30 01:02:09;;;;;;;29.70;16.63;;;8.40;99.90;;;;;;4978278;28;20212;-75
2022/09/30 01:04:35;;;;;;;;;;;8.30;99.90;;;;;;4994590;28;20104;-74
2022/09/30 01:07:04;;;;;;;26.92;15.70;;;8.30;99.90;;;;;;4995981;28;19928;-77
2022/09/30 01:09:33;;;;;;;26.55;16.25;;;8.30;99.90;;;;;;4994527;28;20058;-74
2022/09/30 01:11:59;;;;;;;28.90;17.25;;;8.30;99.90;;;;;;4995299;28;20042;-74
2022/09/30 01:14:27;;;;;;;29.52;17.38;;;8.30;99.90;;;;;;4994342;28;20438;-76
2022/09/30 01:17:30;;;;;;;30.52;17.13;;;8.30;99.90;;;;;;4995254;28;20050;-76
2022/09/30 01:20:23;;;;;;;31.80;16.95;;;8.30;99.90;;;;;;4998600;28;20490;-74
2022/09/30 01:22:58;;;;;;;31.33;16.52;;;8.20;99.90;;;;;;4995687;28;20100;-81
2022/09/30 01:25:51;;;;;;;29.10;16.40;;;8.20;99.90;;;;;;4995670;28;20125;-76
2022/09/30 01:28:42;;;;;;;31.17;16.58;;;8.10;99.90;;;;;;4995012;28;20042;-74
2022/09/30 01:31:07;;;;;;;27.13;15.77;;;8.10;99.90;;;;;;4994930;28;20071;-73
2022/09/30 01:33:49;;;;;;;29.80;16.45;;;8.00;99.90;;;;;;4993389;28;20455;-80
2022/09/30 01:36:28;;;;;;;27.38;16.60;;;8.00;99.90;;;;;;4993770;28;20180;-75
2022/09/30 01:38:57;;;;;;;27.02;15.73;;;7.90;99.90;;;;;;4995059;28;20050;-74
2022/09/30 01:41:39;;;;;;;28.63;15.93;;;7.90;99.90;;;;;;4994986;28;20088;-74
2022/09/30 01:44:16;;;;;;;28.55;15.95;;;7.90;99.90;;;;;;4995191;28;20058;-74
2022/09/30 01:46:50;;;;;;;27.55;16.23;;;7.90;99.90;;;;;;4994873;28;20144;-74
2022/09/30 01:49:25;;;;;;;29.25;16.80;;;7.80;99.90;;;;;;4995234;28;20117;-76
2022/09/30 01:51:57;;;;;;;29.98;16.25;;;7.80;99.90;;;;;;4993790;28;20419;-83
2022/09/30 01:54:36;;;;;;;26.92;15.93;;;7.70;99.90;;;;;;4994195;28;20129;-74
2022/09/30 01:57:40;;;;;;;29.00;16.77;;;7.70;99.90;;;;;;4993852;28;20061;-74
2022/09/30 02:00:09;;;;;;;31.15;16.50;;;7.60;99.90;;;;;;4993610;28;20066;-75
2022/09/30 02:02:42;;;;;;;28.25;16.15;;;7.60;99.90;;;;;;4994245;28;20046;-74
2022/09/30 02:05:10;;;;;;;31.63;16.25;;;7.60;99.90;;;;;;4993058;28;20478;-75
2022/09/30 02:07:41;;;;;;;30.05;17.83;;;7.50;99.90;;;;;;4994273;28;20042;-74
2022/09/30 02:10:21;;;;;;;29.55;16.50;;;7.50;99.90;;;;;;4992883;28;20042;-73
2022/09/30 02:13:02;;;;;;;27.17;16.38;;;7.40;99.90;;;;;;4993472;28;20498;-73
2022/09/30 02:15:35;;;;;;;36.15;16.88;;;7.40;99.90;;;;;;4994224;28;20112;-74
2022/09/30 02:18:06;;;;;;;31.25;16.38;;;7.40;99.90;;;;;;4994046;28;20042;-73
2022/09/30 02:20:37;;;;;;;28.25;15.85;;;7.40;99.90;;;;;;4994549;28;20086;-73
2022/09/30 02:23:14;;;;;;;29.67;17.23;;;7.40;99.90;;;;;;4993629;28;20059;-73
2022/09/30 02:25:54;;;;;;;31.90;17.23;;;7.30;99.90;;;;;;4994703;28;20130;-73
2022/09/30 02:28:27;;;;;;;33.28;16.48;;;7.30;99.90;;;;;;4993570;28;20116;-75
2022/09/30 02:30:57;;;;;;;30.92;16.45;;;7.30;99.90;;;;;;4994556;28;20521;-74
2022/09/30 02:33:49;;;;;;;32.17;17.67;;;7.30;99.90;;;;;;5004684;28;20050;-76
2022/09/30 02:36:28;;;;;;;29.80;16.08;;;7.20;99.90;;;;;;4993845;28;20052;-79
2022/09/30 02:39:04;;;;;;;32.70;17.55;;;7.20;99.90;;;;;;4998674;28;20058;-75
2022/09/30 02:41:38;;;;;;;31.05;16.70;;;7.20;99.90;;;;;;4993120;28;20050;-74
2022/09/30 02:44:04;;;;;;;32.97;17.52;;;7.10;99.90;;;;;;4994074;28;20395;-73
2022/09/30 02:46:42;;;;;;;36.53;17.60;;;7.20;99.90;;;;;;4993926;28;20379;-73
2022/09/30 02:49:19;;;;;;;32.30;16.90;;;7.10;99.90;;;;;;4993478;28;20046;-74
2022/09/30 02:52:16;;;;;;;37.47;17.10;;;7.10;99.90;;;;;;4992616;28;20132;-73
2022/09/30 02:54:53;;;;;;;37.95;17.20;;;7.00;99.90;;;;;;4993073;28;20121;-76
2022/09/30 02:57:36;;;;;;;41.38;16.27;;;7.00;99.90;;;;;;4993449;28;20056;-74
2022/09/30 03:00:03;;;;;;;32.25;16.67;;;7.00;99.90;;;;;;4992441;28;20042;-74
2022/09/30 03:02:29;;;;;;;28.65;14.60;;;6.90;99.90;;;;;;4991846;28;20050;-76
2022/09/30 03:04:55;;;;;;;26.90;14.00;;;6.90;99.90;;;;;;4992967;28;20054;-75
2022/09/30 03:07:20;;;;;;;27.27;14.80;;;6.80;99.90;;;;;;4992973;28;20050;-74
2022/09/30 03:09:46;;;;;;;28.23;15.25;;;6.80;99.90;;;;;;4993899;28;20439;-74
2022/09/30 03:12:15;;;;;;;29.52;15.63;;;6.80;99.90;;;;;;4992012;28;20089;-73
2022/09/30 03:14:55;;;;;;;31.80;16.77;;;6.70;99.90;;;;;;4993680;28;20104;-73
2022/09/30 03:17:51;;;;;;;29.15;14.77;;;6.70;99.90;;;;;;4992901;28;20042;-74
2022/09/30 03:20:36;;;;;;;31.98;16.02;;;6.70;99.90;;;;;;4992778;28;20046;-72
2022/09/30 03:23:26;;;;;;;36.40;15.57;;;6.70;99.90;;;;;;4992706;28;20073;-81
2022/09/30 03:26:07;;;;;;;40.25;14.90;;;6.70;99.90;;;;;;4993187;28;20050;-74
2022/09/30 03:28:56;;;;;;;35.35;15.60;;;6.70;99.90;;;;;;4991501;28;20133;-74
2022/09/30 03:31:46;;;;;;;25.98;14.13;;;6.60;99.90;;;;;;4993162;28;20058;-74
2022/09/30 03:34:18;;;;;;;26.35;13.25;;;6.50;99.90;;;;;;4992892;28;20046;-74
2022/09/30 03:36:55;;;;;;;34.28;14.02;;;6.50;99.90;;;;;;4993732;28;20054;-74
2022/09/30 03:39:34;;;;;;;27.35;15.23;;;6.50;99.90;;;;;;4997767;28;20049;-75
2022/09/30 03:42:16;;;;;;;27.83;14.70;;;6.50;99.90;;;;;;5000966;28;20081;-74
2022/09/30 03:44:45;;;;;;;31.40;14.70;;;6.50;99.90;;;;;;4999801;28;20467;-74
2022/09/30 03:47:15;;;;;;;28.27;14.32;;;6.50;99.90;;;;;;4993403;28;20050;-73
2022/09/30 03:49:54;;;;;;;30.85;15.05;;;6.50;99.90;;;;;;4999427;28;20089;-74
2022/09/30 03:52:20;;;;;;;27.92;14.63;;;6.50;99.90;;;;;;5009701;28;20038;-74
2022/09/30 03:54:50;;;;;;;29.60;14.52;;;6.40;99.90;;;;;;5011831;28;20076;-74
2022/09/30 03:57:16;;;;;;;25.55;14.18;;;6.40;99.90;;;;;;5011341;28;20050;-74
2022/09/30 03:59:42;;;;;;;29.88;14.93;;;6.40;99.90;;;;;;4977804;28;20183;-73
2022/09/30 04:02:09;;;;;;;28.85;15.38;;;6.40;99.90;;;;;;4985439;28;20077;-81
2022/09/30 04:04:35;;;;;;;28.80;14.65;;;6.30;99.90;;;;;;5008932;28;20050;-75
2022/09/30 04:07:01;;;;;;;27.98;13.82;;;6.30;99.90;;;;;;5008334;28;20521;-73
2022/09/30 04:09:27;;;;;;;24.77;13.60;;;6.30;99.90;;;;;;5003222;28;20050;-76
2022/09/30 04:11:52;;;;;;;27.95;14.57;;;6.20;99.90;;;;;;5005388;28;20390;-74
2022/09/30 04:14:18;;;;;;;26.15;13.82;;;6.20;99.90;;;;;;4992952;28;20466;-74
2022/09/30 04:16:44;;;;;;;26.58;14.10;;;6.20;99.90;;;;;;4996627;28;20050;-73
2022/09/30 04:19:09;;;;;;;24.05;13.65;;;6.20;99.90;;;;;;4996435;28;20435;-80
2022/09/30 04:21:35;;;;;;;26.63;14.15;;;6.20;99.90;;;;;;4995389;28;20050;-75
2022/09/30 04:24:01;;;;;;;26.83;14.50;;;6.20;99.90;;;;;;4996588;28;20054;-76
2022/09/30 04:26:27;;;;;;;26.55;14.43;;;6.20;99.90;;;;;;4996447;28;20140;-73
2022/09/30 04:28:53;;;;;;;25.55;15.02;;;6.20;99.90;;;;;;4995649;28;20185;-74
2022/09/30 04:31:20;;;;;;;31.80;15.65;;;6.20;99.90;;;;;;4978718;28;20058;-73
2022/09/30 04:33:46;;;;;;;28.77;14.33;;;6.10;99.90;;;;;;4994891;28;20077;-74
2022/09/30 04:36:12;;;;;;;25.88;14.02;;;6.10;99.90;;;;;;4995878;28;20050;-80
2022/09/30 04:38:38;;;;;;;27.50;14.15;;;6.10;99.90;;;;;;4996318;28;20046;-79
2022/09/30 04:41:05;;;;;;;28.98;14.10;;;6.00;99.90;;;;;;4996694;28;20156;-73
2022/09/30 04:43:31;;;;;;;26.58;14.32;;;6.00;99.90;;;;;;4995084;28;20051;-73
2022/09/30 04:45:57;;;;;;;24.90;13.02;;;6.00;99.90;;;;;;4996268;28;20058;-73
2022/09/30 04:48:23;;;;;;;24.90;13.45;;;5.90;99.90;;;;;;4996043;28;20043;-73
2022/09/30 04:50:50;;;;;;;30.92;14.93;;;5.90;99.90;;;;;;4994970;28;20129;-73
2022/09/30 04:53:17;;;;;;;28.83;14.82;;;6.00;99.90;;;;;;4995561;28;20509;-73
2022/09/30 04:55:43;;;;;;;26.88;14.43;;;5.90;99.90;;;;;;4996787;28;20105;-74
2022/09/30 04:58:10;;;;;;;23.27;13.13;;;5.90;99.90;;;;;;4995187;28;20054;-74
2022/09/30 05:00:36;;;;;;;23.97;13.03;;;5.90;99.90;;;;;;4995568;28;20062;-74
2022/09/30 05:03:02;;;;;;;24.80;12.85;;;5.80;99.90;;;;;;4995824;28;20376;-75
2022/09/30 05:05:29;;;;;;;30.77;13.83;;;5.90;99.90;;;;;;4995743;28;20132;-74
2022/09/30 05:08:04;;;;;;;24.58;12.45;;;5.90;99.90;;;;;;4996125;28;20456;-77
2022/09/30 05:10:30;;;;;;;26.17;13.63;;;5.90;99.90;;;;;;4995854;28;20054;-76
2022/09/30 05:12:57;;;;;;;26.20;12.48;;;5.90;99.90;;;;;;4995624;28;20054;-74
2022/09/30 05:15:28;;;;;;;24.20;13.02;;;5.80;99.90;;;;;;4995347;28;20604;-73
2022/09/30 05:17:54;;;;;;;26.38;13.32;;;5.80;99.90;;;;;;4979167;28;20093;-75
2022/09/30 05:20:20;;;;;;;27.67;14.23;;;5.80;99.90;;;;;;4994655;28;20331;-74
2022/09/30 05:22:46;;;;;;;28.17;13.80;;;5.80;99.90;;;;;;4995336;28;20058;-75
2022/09/30 05:25:15;;;;;;;26.60;13.73;;;5.70;99.90;;;;;;4996432;28;20042;-73
2022/09/30 05:27:40;;;;;;;27.27;14.38;;;5.80;99.90;;;;;;4979685;28;20060;-72
2022/09/30 05:30:07;;;;;;;31.60;14.90;;;5.80;99.90;;;;;;4997970;28;20053;-73
2022/09/30 05:32:32;;;;;;;27.98;13.95;;;5.80;99.90;;;;;;5003360;28;20085;-76
2022/09/30 05:34:58;;;;;;;29.20;14.75;;;5.70;99.90;;;;;;4997317;28;20050;-76
2022/09/30 05:37:24;;;;;;;30.73;15.13;;;5.70;99.90;;;;;;4979531;28;20054;-75
2022/09/30 05:39:50;;;;;;;33.95;15.23;;;5.80;99.90;;;;;;4994971;28;20079;-75
2022/09/30 05:42:15;;;;;;;31.50;14.88;;;5.70;99.90;;;;;;4996539;28;20050;-74
2022/09/30 05:44:41;;;;;;;27.92;14.27;;;5.70;99.90;;;;;;4977947;28;20050;-75
2022/09/30 05:47:10;;;;;;;29.05;14.38;;;5.70;99.90;;;;;;4994987;28;20058;-75
2022/09/30 05:49:36;;;;;;;31.48;14.68;;;5.80;99.90;;;;;;4961349;28;20066;-74
2022/09/30 05:52:02;;;;;;;31.23;15.07;;;5.70;99.90;;;;;;4977358;28;20042;-75
2022/09/30 05:54:27;;;;;;;26.20;14.48;;;5.80;99.90;;;;;;4993440;28;20157;-75
2022/09/30 05:56:53;;;;;;;27.38;13.82;;;5.80;99.90;;;;;;4993303;28;20085;-75
2022/09/30 05:59:19;;;;;;;28.60;14.35;;;5.80;99.90;;;;;;4993559;28;20490;-75
2022/09/30 06:01:45;;;;;;;31.83;14.82;;;5.80;99.90;;;;;;4976765;28;20070;-76
2022/09/30 06:04:11;;;;;;;27.10;14.32;;;5.90;99.90;;;;;;4992894;28;20046;-75
2022/09/30 06:06:37;;;;;;;29.73;14.07;;;5.90;99.90;;;;;;4961068;28;20042;-76
2022/09/30 06:09:03;;;;;;;29.85;14.18;;;5.90;99.90;;;;;;4977063;28;20368;-75
2022/09/30 06:11:30;;;;;;;28.75;14.70;;;5.90;99.90;;;;;;4994899;28;20108;-76
2022/09/30 06:13:56;;;;;;;29.23;14.38;;;5.90;99.90;;;;;;4994738;28;20054;-79
2022/09/30 06:16:22;;;;;;;32.33;14.48;;;6.00;99.90;;;;;;4993304;28;20053;-79
2022/09/30 06:18:48;;;;;;;29.83;15.20;;;6.00;99.90;;;;;;4977358;28;20061;-75
2022/09/30 06:21:15;;;;;;;31.90;14.85;;;6.10;99.90;;;;;;4993164;28;20285;-75
2022/09/30 06:23:42;;;;;;;29.33;14.68;;;6.10;99.90;;;;;;4994697;28;20077;-78
2022/09/30 06:26:10;;;;;;;29.48;14.10;;;6.10;99.90;;;;;;4994551;28;20050;-77
2022/09/30 06:28:37;;;;;;;30.83;14.93;;;6.10;99.90;;;;;;4976688;28;20057;-79
2022/09/30 06:31:04;;;;;;;28.27;13.80;;;6.20;99.90;;;;;;4993721;28;20058;-78
2022/09/30 06:33:30;;;;;;;31.70;14.27;;;6.20;99.90;;;;;;4994189;28;20399;-75
2022/09/30 06:35:56;;;;;;;29.85;15.50;;;6.30;99.90;;;;;;4994780;28;20065;-74
2022/09/30 06:38:22;;;;;;;29.05;14.68;;;6.30;99.90;;;;;;4993613;28;20485;-75
2022/09/30 06:40:49;;;;;;;31.25;15.15;;;6.30;99.90;;;;;;4993683;28;20053;-79
2022/09/30 06:43:18;;;;;;;31.67;14.50;;;6.40;99.90;;;;;;4992536;28;20046;-75
2022/09/30 06:45:51;;;;;;;28.27;14.23;;;6.40;99.90;;;;;;4976319;28;20073;-77
2022/09/30 06:48:17;;;;;;;30.60;14.63;;;6.40;99.90;;;;;;4992485;28;20112;-82
2022/09/30 06:50:44;;;;;;;26.50;14.20;;;6.50;99.90;;;;;;4993674;28;20570;-75
2022/09/30 06:53:11;;;;;;;28.48;13.65;;;6.50;99.90;;;;;;4995140;28;20498;-75
2022/09/30 06:55:37;;;;;;;29.75;13.75;;;6.60;99.90;;;;;;4976571;28;20100;-74
2022/09/30 06:58:08;;;;;;;28.73;14.27;;;6.60;99.90;;;;;;4994515;28;20074;-75
2022/09/30 07:00:35;;;;;;;35.05;14.18;;;6.70;99.90;;;;;;4993621;28;20281;-76
2022/09/30 07:03:01;;;;;;;26.88;14.45;;;6.80;99.90;;;;;;4995485;28;20058;-77
2022/09/30 07:05:26;;;;;;;27.35;12.98;;;6.90;99.90;;;;;;4994662;28;20105;-75
2022/09/30 07:07:53;;;;;;;28.55;13.52;;;6.90;99.90;;;;;;4976562;28;20042;-77
2022/09/30 07:10:19;;;;;;;26.77;13.35;;;7.00;99.90;;;;;;4994936;28;20129;-75
2022/09/30 07:12:52;;;;;;;26.48;12.77;;;7.10;99.90;;;;;;4994267;28;20054;-75
2022/09/30 07:15:22;;;;;;;32.70;13.90;;;7.20;99.90;;;;;;4994414;28;20046;-75
2022/09/30 07:17:55;;;;;;;29.08;14.05;;;7.30;99.90;;;;;;4994855;28;20050;-75
2022/09/30 07:20:21;;;;;;;25.50;13.27;;;7.30;99.90;;;;;;4992304;28;20368;-76
2022/09/30 07:22:47;;;;;;;33.97;15.52;;;7.30;99.90;;;;;;4975954;28;20132;-76
2022/09/30 07:25:14;;;;;;;31.58;14.75;;;7.40;99.90;;;;;;4993671;28;20185;-77
2022/09/30 07:27:40;;;;;;;32.63;14.35;;;7.50;99.90;;;;;;4976150;28;20043;-76
2022/09/30 07:30:07;;;;;;;28.52;14.00;;;7.50;99.90;;;;;;4993443;28;20096;-76
2022/09/30 07:32:32;;;;;;;26.25;14.00;;;7.60;99.90;;;;;;4992984;28;20042;-78
2022/09/30 07:34:58;;;;;;;26.45;13.23;;;7.70;99.90;;;;;;4991703;28;20393;-75
2022/09/30 07:37:25;;;;;;;28.90;13.80;;;7.70;99.90;;;;;;4976238;28;20109;-76
2022/09/30 07:39:51;;;;;;;24.80;12.75;;;7.80;99.90;;;;;;4993328;28;20485;-77
2022/09/30 07:42:20;;;;;;;28.13;13.98;;;7.90;99.90;;;;;;4992590;28;20085;-76
2022/09/30 07:44:47;;;;;;;24.83;12.93;;;8.00;99.90;;;;;;4976421;28;20066;-77
2022/09/30 07:47:14;;;;;;;25.95;12.98;;;8.10;99.90;;;;;;4976309;28;20057;-75
2022/09/30 07:49:41;;;;;;;28.67;13.82;;;8.20;99.90;;;;;;4994772;28;20173;-77
2022/09/30 07:52:09;;;;;;;28.92;13.60;;;8.30;99.90;;;;;;4996511;28;20073;-76
2022/09/30 07:54:35;;;;;;;28.27;13.93;;;8.40;99.90;;;;;;4996432;28;20046;-79
2022/09/30 07:57:02;;;;;;;27.25;13.95;;;8.50;99.90;;;;;;4998533;28;20038;-79
2022/09/30 07:59:30;;;;;;;26.83;14.27;;;8.60;99.90;;;;;;4999401;28;20069;-75
2022/09/30 08:01:56;;;;;;;27.95;13.82;;;8.60;99.90;;;;;;5001121;28;20050;-75
2022/09/30 08:04:23;;;;;;;25.48;13.32;;;8.70;99.90;;;;;;5003145;28;20053;-78
2022/09/30 08:06:54;;;;;;;;;;;8.70;99.90;;;;;;5008465;28;20046;-77
2022/09/30 08:09:21;;;;;;;23.88;12.88;;;8.90;99.90;;;;;;5004867;28;19928;-76
2022/09/30 08:11:47;;;;;;;25.48;13.45;;;9.00;99.90;;;;;;5001244;28;20110;-79
2022/09/30 08:14:15;;;;;;;26.08;12.88;;;9.00;99.90;;;;;;4982379;28;20100;-77
2022/09/30 08:16:41;;;;;;;23.98;13.73;;;9.20;99.90;;;;;;4981836;28;20100;-76
2022/09/30 08:19:13;;;;;;;25.30;13.20;;;9.20;99.90;;;;;;5001152;28;20046;-77
2022/09/30 08:21:39;;;;;;;25.70;13.05;;;9.40;99.90;;;;;;4986812;28;20054;-83
2022/09/30 08:24:04;;;;;;;25.00;13.10;;;9.60;99.90;;;;;;5012138;28;20065;-78
2022/09/30 08:26:30;;;;;;;24.65;14.25;;;9.60;99.90;;;;;;5010342;28;20046;-77
2022/09/30 08:28:59;;;;;;;24.73;13.00;;;9.70;99.90;;;;;;5003092;28;20112;-80
2022/09/30 08:31:26;;;;;;;22.75;12.50;;;9.90;99.90;;;;;;5004729;28;20046;-81
2022/09/30 08:33:54;;;;;;;22.00;12.43;;;9.90;99.90;;;;;;5004596;28;20050;-75
2022/09/30 08:36:24;;;;;;;26.52;12.23;;;10.00;99.90;;;;;;4997028;28;20057;-78
2022/09/30 08:38:50;;;;;;;23.05;12.43;;;10.10;99.90;;;;;;4997076;28;20038;-78
2022/09/30 08:41:36;;;;;;;27.08;13.45;;;10.10;99.90;;;;;;4997236;28;20061;-76
2022/09/30 08:44:26;;;;;;;23.95;12.57;;;10.20;99.90;;;;;;4996889;28;20347;-77
2022/09/30 08:47:32;;;;;;;23.65;13.40;;;10.30;99.90;;;;;;4996886;28;20053;-76
2022/09/30 08:50:42;;;;;;;30.20;13.68;;;10.40;99.90;;;;;;4995975;28;20046;-76
2022/09/30 08:53:23;;;;;;;26.05;12.75;;;10.50;99.90;;;;;;4995254;28;20105;-78
2022/09/30 08:55:49;;;;;;;26.50;13.50;;;10.60;99.90;;;;;;4995285;28;20056;-75
2022/09/30 08:58:36;;;;;;;24.85;13.15;;;10.70;99.90;;;;;;4995915;28;20046;-76
2022/09/30 09:01:29;;;;;;;23.83;13.02;;;10.80;99.90;;;;;;4994937;28;20046;-77
2022/09/30 09:03:57;;;;;;;22.95;12.10;;;10.90;99.90;;;;;;4995453;28;20069;-77
2022/09/30 09:06:29;;;;;;;22.98;12.20;;;11.10;99.90;;;;;;4996024;28;20046;-76
2022/09/30 09:09:16;;;;;;;24.65;12.30;;;11.10;99.90;;;;;;4995588;28;20046;-75
2022/09/30 09:11:45;;;;;;;24.17;12.07;;;11.20;99.90;;;;;;4994132;28;20046;-76
2022/09/30 09:14:49;;;;;;;20.33;11.55;;;11.30;99.90;;;;;;4995234;28;20042;-75
2022/09/30 09:17:52;;;;;;;22.98;12.55;;;11.40;99.90;;;;;;4995513;28;20078;-75
2022/09/30 09:20:21;;;;;;;27.80;13.48;;;11.50;99.90;;;;;;4995703;28;20506;-78
2022/09/30 09:22:49;;;;;;;23.55;13.43;;;11.60;99.90;;;;;;4994604;28;20115;-77
2022/09/30 09:25:21;;;;;;;24.13;13.27;;;11.80;99.90;;;;;;4994766;28;20058;-75
2022/09/30 09:27:58;;;;;;;23.63;12.73;;;11.90;99.90;;;;;;4996291;28;20081;-74
2022/09/30 09:30:27;;;;;;;23.67;14.43;;;12.10;99.90;;;;;;4995676;28;20399;-75
2022/09/30 09:32:59;;;;;;;25.30;14.98;;;12.20;99.90;;;;;;4995158;28;20089;-76
2022/09/30 09:35:58;;;;;;;27.25;16.77;;;12.20;99.90;;;;;;4995618;28;20050;-76
2022/09/30 09:38:40;;;;;;;29.52;16.38;;;12.30;99.90;;;;;;4994977;28;20446;-74
2022/09/30 09:41:40;;;;;;;30.85;16.70;;;12.50;99.90;;;;;;4993635;28;20053;-77
2022/09/30 09:44:29;;;;;;;30.17;18.15;;;12.60;99.90;;;;;;4995413;28;20152;-74
2022/09/30 09:47:04;;;;;;;32.95;19.05;;;12.70;99.90;;;;;;4993820;28;20498;-75
2022/09/30 09:49:37;;;;;;;31.88;18.25;;;;;;;;;;4995161;28;20057;-75
2022/09/30 09:52:12;;;;;;;32.05;18.42;;;12.90;99.90;;;;;;4994631;28;20146;-77
2022/09/30 09:54:47;;;;;;;30.17;18.38;;;12.80;99.90;;;;;;4977931;28;20061;-78
2022/09/30 09:57:24;;;;;;;28.40;17.38;;;12.90;99.90;;;;;;4995052;28;20042;-78
2022/09/30 09:59:57;;;;;;;31.60;17.58;;;13.00;99.90;;;;;;4994592;28;20108;-81
2022/09/30 10:02:31;;;;;;;28.50;17.25;;;13.30;99.90;;;;;;4993899;28;20133;-80
2022/09/30 10:05:02;;;;;;;30.45;18.48;;;13.20;99.90;;;;;;4977531;28;20085;-75
2022/09/30 10:07:30;;;;;;;29.30;16.58;;;13.20;99.90;;;;;;4994880;28;20046;-77
2022/09/30 10:10:17;;;;;;;28.73;15.20;;;13.20;99.90;;;;;;4976840;28;20125;-83
2022/09/30 10:12:44;;;;;;;25.42;14.45;;;13.30;99.90;;;;;;4994660;28;20360;-76
2022/09/30 10:15:25;;;;;;;24.63;16.08;;;13.40;99.90;;;;;;4994887;28;20065;-75
2022/09/30 10:17:53;;;;;;;22.88;13.32;;;13.70;99.90;;;;;;4995057;28;20084;-83
2022/09/30 10:20:28;;;;;;;22.90;13.38;;;13.50;99.90;;;;;;4993928;28;20460;-77
2022/09/30 10:23:22;;;;;;;20.77;10.50;;;13.50;99.90;;;;;;4994208;28;20057;-76
2022/09/30 10:25:55;;;;;;;18.45;10.52;;;13.70;99.90;;;;;;4995505;28;20053;-78
2022/09/30 10:28:25;;;;;;;13.82;7.70;;;;;;;;;;4994937;28;20038;-81
2022/09/30 10:30:59;;;;;;;14.48;7.45;;;13.80;99.90;;;;;;4994148;28;20050;-78
2022/09/30 10:33:46;;;;;;;16.63;7.60;;;13.90;99.90;;;;;;4977474;28;20061;-77
2022/09/30 10:36:18;;;;;;;20.38;9.10;;;14.00;99.90;;;;;;4995478;28;20058;-76
2022/09/30 10:38:57;;;;;;;16.20;8.90;;;14.10;99.90;;;;;;4994884;28;20050;-74
2022/09/30 10:41:30;;;;;;;16.63;7.90;;;14.10;99.90;;;;;;4994648;28;20378;-75
2022/09/30 10:44:00;;;;;;;17.90;8.55;;;14.20;99.90;;;;;;4994241;28;20054;-77
2022/09/30 10:46:30;;;;;;;14.02;8.00;;;14.10;99.90;;;;;;4993383;28;20062;-76
2022/09/30 10:48:59;;;;;;;18.00;8.43;;;14.20;99.90;;;;;;4994948;28;20057;-76
2022/09/30 10:51:34;;;;;;;17.15;8.32;;;14.30;99.90;;;;;;4992979;28;20136;-75
2022/09/30 10:54:00;;;;;;;19.85;9.30;;;;;;;;;;4994697;28;20362;-77
2022/09/30 10:56:40;;;;;;;15.52;8.55;;;14.70;99.90;;;;;;4994557;28;20382;-76
2022/09/30 10:59:34;;;;;;;17.25;8.52;;;14.50;99.90;;;;;;4992541;28;20414;-76
2022/09/30 11:02:29;;;;;;;16.25;8.75;;;14.60;99.90;;;;;;4993172;28;20050;-75
2022/09/30 11:05:06;;;;;;;17.33;9.00;;;14.60;99.90;;;;;;4993726;28;20532;-76
2022/09/30 11:07:39;;;;;;;20.65;10.07;;;14.70;99.90;;;;;;4995133;28;20383;-75
2022/09/30 11:10:20;;;;;;;16.85;9.18;;;14.90;99.90;;;;;;4993860;28;20147;-77
2022/09/30 11:12:56;;;;;;;14.80;7.70;;;15.00;99.90;;;;;;4994868;28;20192;-76
2022/09/30 11:15:29;;;;;;;14.77;7.40;;;15.00;99.90;;;;;;4994089;28;20060;-77
2022/09/30 11:18:00;;;;;;;17.00;9.13;;;15.00;99.90;;;;;;4995650;28;20121;-75
2022/09/30 11:20:31;;;;;;;18.10;9.85;;;15.00;99.90;;;;;;4996572;28;20057;-76
2022/09/30 11:23:29;;;;;;;21.98;10.68;;;15.10;99.90;;;;;;5008358;28;20046;-76
2022/09/30 11:26:23;;;;;;;21.35;11.15;;;15.10;99.90;;;;;;4986547;28;20058;-76
2022/09/30 11:28:57;;;;;;;20.42;11.48;;;15.10;99.90;;;;;;4999619;28;20105;-77
2022/09/30 11:31:54;;;;;;;25.30;13.30;;;15.10;99.90;;;;;;4998376;28;20129;-76
2022/09/30 11:34:42;;;;;;;23.77;13.10;;;15.10;99.90;;;;;;4997145;28;20054;-74
2022/09/30 11:37:20;;;;;;;24.40;13.55;;;15.20;99.90;;;;;;4996997;28;20463;-76
2022/09/30 11:40:07;;;;;;;24.15;11.68;;;15.20;99.90;;;;;;4997149;28;20057;-77
2022/09/30 11:43:00;;;;;;;22.58;11.32;;;15.30;99.90;;;;;;4997682;28;20092;-74
2022/09/30 11:46:17;;;;;;;21.55;11.55;;;15.60;99.90;;;;;;4996891;28;20063;-76
2022/09/30 11:48:49;;;;;;;19.60;10.70;;;15.70;99.90;;;;;;4996196;28;20082;-81
2022/09/30 11:51:32;;;;;;;22.75;11.52;;;15.70;99.90;;;;;;4995687;28;20525;-75
2022/09/30 11:54:04;;;;;;;20.38;11.23;;;15.80;99.90;;;;;;4996777;28;20042;-80
2022/09/30 11:56:38;;;;;;;24.92;12.77;;;15.90;99.90;;;;;;4996629;28;20043;-76
2022/09/30 11:59:12;;;;;;;21.15;11.38;;;;;;;;;;4996304;28;20064;-77
2022/09/30 12:01:43;;;;;;;22.70;11.57;;;15.90;99.90;;;;;;4997585;28;20096;-75
2022/09/30 12:04:14;;;;;;;23.65;12.85;;;16.00;99.90;;;;;;4998730;28;20042;-77
2022/09/30 12:06:53;;;;;;;22.30;13.32;;;16.00;99.90;;;;;;4989599;28;20136;-80
2022/09/30 12:09:37;;;;;;;22.75;12.93;;;16.00;99.90;;;;;;5005252;28;20571;-76
2022/09/30 12:12:12;;;;;;;23.95;14.43;;;15.90;99.90;;;;;;5004509;28;20061;-76
2022/09/30 12:14:47;;;;;;;24.23;14.30;;;15.90;99.90;;;;;;4984734;28;20046;-75
2022/09/30 12:17:18;;;;;;;21.17;12.27;;;;;;;;;;4980295;28;20090;-76
2022/09/30 12:19:48;;;;;;;25.17;13.90;;;16.00;99.90;;;;;;4996907;28;20454;-76
2022/09/30 12:22:37;;;;;;;22.20;13.18;;;16.00;99.90;;;;;;4996169;28;20050;-77
2022/09/30 12:25:25;;;;;;;22.23;13.52;;;15.80;99.90;;;;;;4982251;28;20050;-77
2022/09/30 12:27:58;;;;;;;22.23;13.20;;;15.70;99.90;;;;;;4997428;28;20050;-76
2022/09/30 12:30:27;;;;;;;23.13;13.10;;;15.80;99.90;;;;;;4995660;28;20054;-74
2022/09/30 12:32:58;;;;;;;25.55;14.73;;;15.90;99.90;;;;;;4995495;28;20537;-75
2022/09/30 12:35:44;;;;;;;22.42;13.95;;;16.00;99.90;;;;;;4994929;28;20483;-75
2022/09/30 12:38:53;;;;;;;22.73;14.77;;;16.10;99.90;;;;;;4996888;28;20047;-84
2022/09/30 12:41:31;;;;;;;25.42;13.90;;;16.30;99.90;;;;;;4977646;28;20386;-77
2022/09/30 12:44:18;;;;;;;26.60;15.02;;;16.40;99.90;;;;;;4996525;28;20136;-75
2022/09/30 12:47:01;;;;;;;31.33;15.80;;;16.40;99.90;;;;;;4996815;28;20193;-76
2022/09/30 12:49:30;;;;;;;29.83;16.42;;;16.40;99.90;;;;;;4995126;28;20141;-79
2022/09/30 12:52:01;;;;;;;26.83;16.45;;;16.40;99.90;;;;;;4979283;28;20098;-74
2022/09/30 12:54:35;;;;;;;27.08;17.02;;;16.20;99.90;;;;;;4996251;28;20054;-76
2022/09/30 12:57:05;;;;;;;32.08;17.33;;;16.10;99.90;;;;;;4995472;28;20144;-75
2022/09/30 12:59:33;;;;;;;32.30;18.65;;;16.00;99.90;;;;;;4994810;28;20053;-76
2022/09/30 13:02:00;;;;;;;28.23;17.42;;;16.10;99.90;;;;;;4995076;28;20128;-75
2022/09/30 13:04:32;;;;;;;29.77;18.45;;;;;;;;;;4994518;28;20137;-77
2022/09/30 13:06:57;;;;;;;27.05;17.75;;;16.20;99.90;;;;;;4995693;28;20057;-77